createdAt,value
2018-07-11T00:01:47.450Z,25.30
2018-07-11T00:04:28.704Z,25.20
2018-07-11T00:07:09.321Z,25.20
2018-07-11T00:09:50.853Z,25.20
2018-07-11T00:12:31.764Z,25.20
2018-07-11T00:15:13.257Z,25.20
2018-07-11T00:17:54.841Z,25.20
2018-07-11T00:20:36.178Z,25.20
2018-07-11T00:23:16.819Z,25.20
2018-07-11T00:25:57.400Z,25.20
2018-07-11T00:28:38.836Z,25.20
2018-07-11T00:31:20.184Z,25.20
2018-07-11T00:34:01.477Z,25.20
2018-07-11T00:36:43.016Z,25.20
2018-07-11T00:39:24.185Z,25.20
2018-07-11T00:42:05.407Z,25.20
2018-07-11T00:44:46.395Z,25.20
2018-07-11T00:47:27.572Z,25.20
2018-07-11T00:50:08.814Z,25.10
2018-07-11T00:52:50.061Z,25.10
2018-07-11T00:55:30.973Z,25.10
2018-07-11T00:58:12.405Z,25.00
2018-07-11T01:00:53.318Z,25.00
2018-07-11T01:03:34.604Z,25.10
2018-07-11T01:06:15.834Z,25.00
2018-07-11T01:08:57.143Z,25.00
2018-07-11T01:11:38.116Z,25.00
2018-07-11T01:14:19.535Z,25.00
2018-07-11T01:17:00.827Z,25.00
2018-07-11T01:19:41.736Z,25.00
2018-07-11T01:22:23.016Z,25.00
2018-07-11T01:25:04.512Z,24.90
2018-07-11T01:27:45.755Z,24.90
2018-07-11T01:30:26.468Z,24.90
2018-07-11T01:33:07.088Z,24.90
2018-07-11T01:35:48.492Z,24.90
2018-07-11T01:41:11.208Z,24.80
2018-07-11T01:43:52.325Z,24.80
2018-07-11T01:46:33.623Z,24.90
2018-07-11T01:49:14.714Z,24.90
2018-07-11T01:51:56.557Z,24.90
2018-07-11T01:54:38.092Z,24.90
2018-07-11T01:57:19.177Z,24.80
2018-07-11T01:59:59.995Z,24.80
2018-07-11T02:02:40.913Z,24.80
2018-07-11T02:05:21.920Z,24.70
2018-07-11T02:08:02.831Z,24.70
2018-07-11T02:10:44.045Z,24.70
2018-07-11T02:13:25.320Z,24.60
2018-07-11T02:16:06.588Z,24.60
2018-07-11T02:18:47.904Z,24.60
2018-07-11T02:21:29.134Z,24.60
2018-07-11T02:24:10.457Z,24.60
2018-07-11T02:26:52.224Z,24.60
2018-07-11T02:29:32.907Z,24.60
2018-07-11T02:32:14.332Z,24.60
2018-07-11T02:34:55.576Z,24.60
2018-07-11T02:37:37.076Z,24.60
2018-07-11T02:40:18.491Z,24.50
2018-07-11T02:42:59.893Z,24.50
2018-07-11T02:45:40.516Z,24.60
2018-07-11T02:48:21.742Z,24.50
2018-07-11T02:51:03.004Z,24.60
2018-07-11T02:53:44.277Z,24.60
2018-07-11T02:56:25.647Z,24.50
2018-07-11T02:59:06.961Z,24.50
2018-07-11T03:01:48.065Z,24.50
2018-07-11T03:04:29.040Z,24.50
2018-07-11T03:07:10.835Z,24.50
2018-07-11T03:09:52.330Z,24.40
2018-07-11T03:12:33.425Z,24.40
2018-07-11T03:15:14.209Z,24.40
2018-07-11T03:17:55.723Z,24.40
2018-07-11T03:20:36.787Z,24.30
2018-07-11T03:23:17.752Z,24.20
2018-07-11T03:25:59.112Z,24.20
2018-07-11T03:28:40.344Z,24.20
2018-07-11T03:31:21.198Z,24.20
2018-07-11T03:34:02.562Z,24.20
2018-07-11T03:36:43.078Z,24.20
2018-07-11T03:39:23.745Z,24.20
2018-07-11T03:42:04.960Z,24.20
2018-07-11T03:44:46.407Z,24.20
2018-07-11T03:47:27.840Z,24.20
2018-07-11T03:50:08.996Z,24.20
2018-07-11T03:52:50.197Z,24.20
2018-07-11T03:55:31.160Z,24.20
2018-07-11T03:58:12.627Z,24.20
2018-07-11T04:00:53.675Z,24.20
2018-07-11T04:03:34.881Z,24.20
2018-07-11T04:06:16.248Z,24.20
2018-07-11T04:08:57.684Z,24.20
2018-07-11T04:11:39.029Z,24.20
2018-07-11T04:14:19.734Z,24.10
2018-07-11T04:17:00.732Z,24.10
2018-07-11T04:19:41.760Z,24.10
2018-07-11T04:22:23.092Z,24.20
2018-07-11T04:25:04.173Z,24.20
2018-07-11T04:27:45.052Z,24.20
2018-07-11T04:30:26.329Z,24.20
2018-07-11T04:35:49.101Z,24.20
2018-07-11T04:38:30.130Z,24.20
2018-07-11T04:41:10.712Z,24.20
2018-07-11T04:43:51.627Z,24.20
2018-07-11T04:46:33.060Z,24.20
2018-07-11T04:49:13.705Z,24.20
2018-07-11T04:51:54.973Z,24.30
2018-07-11T04:54:36.266Z,24.30
2018-07-11T04:57:17.769Z,24.40
2018-07-11T04:59:58.930Z,24.40
2018-07-11T05:02:40.516Z,24.40
2018-07-11T05:05:21.728Z,24.50
2018-07-11T05:08:02.860Z,24.50
2018-07-11T05:10:44.008Z,24.60
2018-07-11T05:13:24.688Z,24.60
2018-07-11T05:16:05.541Z,24.60
2018-07-11T05:18:46.634Z,24.70
2018-07-11T05:21:27.797Z,24.70
2018-07-11T05:24:08.384Z,24.90
2018-07-11T05:26:49.213Z,25.00
2018-07-11T05:29:31.147Z,25.30
2018-07-11T05:32:12.413Z,25.50
2018-07-11T05:34:53.764Z,25.60
2018-07-11T05:37:34.504Z,25.70
2018-07-11T05:40:15.640Z,25.80
2018-07-11T05:42:56.647Z,25.90
2018-07-11T05:45:37.424Z,26.00
2018-07-11T05:48:18.354Z,26.20
2018-07-11T05:50:59.151Z,26.40
2018-07-11T05:53:40.425Z,26.60
2018-07-11T05:56:21.723Z,26.90
2018-07-11T05:59:02.998Z,27.30
2018-07-11T06:01:43.569Z,27.70
2018-07-11T06:04:24.158Z,28.00
2018-07-11T06:07:04.899Z,28.10
2018-07-11T06:09:45.519Z,28.40
2018-07-11T06:12:26.617Z,28.60
2018-07-11T06:15:07.991Z,28.90
2018-07-11T06:17:49.365Z,29.30
2018-07-11T06:20:30.848Z,29.70
2018-07-11T06:23:11.390Z,30.10
2018-07-11T06:25:52.893Z,30.30
2018-07-11T06:28:34.257Z,30.50
2018-07-11T06:31:15.456Z,30.60
2018-07-11T06:33:56.997Z,30.60
2018-07-11T06:36:38.453Z,30.70
2018-07-11T06:39:19.739Z,30.80
2018-07-11T06:42:00.916Z,31.00
2018-07-11T06:44:42.325Z,31.10
2018-07-11T06:47:29.479Z,31.30
2018-07-11T06:50:13.016Z,31.40
2018-07-11T06:52:54.370Z,31.50
2018-07-11T06:55:35.971Z,31.60
2018-07-11T06:58:18.716Z,31.80
2018-07-11T07:01:00.621Z,31.90
2018-07-11T07:03:42.351Z,32.00
2018-07-11T07:06:23.548Z,31.90
2018-07-11T07:09:06.884Z,31.90
2018-07-11T07:11:50.365Z,31.90
2018-07-11T07:14:34.414Z,31.90
2018-07-11T07:17:16.401Z,31.90
2018-07-11T07:22:38.765Z,32.00
2018-07-11T07:25:19.555Z,32.10
2018-07-11T07:28:00.924Z,32.10
2018-07-11T07:30:42.269Z,32.10
2018-07-11T07:33:23.380Z,32.10
2018-07-11T07:36:04.988Z,32.10
2018-07-11T07:38:46.251Z,32.10
2018-07-11T07:41:27.813Z,32.10
2018-07-11T07:44:09.768Z,32.10
2018-07-11T07:46:55.516Z,32.10
2018-07-11T07:49:36.473Z,32.10
2018-07-11T07:52:17.621Z,32.10
2018-07-11T07:54:58.930Z,32.20
2018-07-11T07:57:39.947Z,32.30
2018-07-11T08:00:21.024Z,32.40
2018-07-11T08:03:02.279Z,32.50
2018-07-11T08:05:42.806Z,32.50
2018-07-11T08:08:23.859Z,32.60
2018-07-11T08:11:04.813Z,32.70
2018-07-11T08:13:46.069Z,32.70
2018-07-11T08:16:27.355Z,32.80
2018-07-11T08:19:08.667Z,32.70
2018-07-11T08:21:49.899Z,32.80
2018-07-11T08:24:31.263Z,32.80
2018-07-11T08:27:12.471Z,32.70
2018-07-11T08:29:54.659Z,32.70
2018-07-11T08:32:35.203Z,32.70
2018-07-11T08:35:16.451Z,32.70
2018-07-11T08:37:58.121Z,32.80
2018-07-11T08:40:38.796Z,32.80
2018-07-11T08:43:19.471Z,32.90
2018-07-11T08:46:00.968Z,33.10
2018-07-11T08:48:42.006Z,33.30
2018-07-11T08:51:23.436Z,33.40
2018-07-11T08:54:04.472Z,33.50
2018-07-11T08:56:46.001Z,33.70
2018-07-11T08:59:27.251Z,33.80
2018-07-11T09:02:08.489Z,33.90
2018-07-11T09:07:30.592Z,33.80
2018-07-11T09:10:12.144Z,33.80
2018-07-11T09:12:53.421Z,34.00
2018-07-11T09:15:34.427Z,33.90
2018-07-11T09:18:15.463Z,33.80
2018-07-11T09:20:56.702Z,33.70
2018-07-11T09:23:37.488Z,33.70
2018-07-11T09:26:18.165Z,33.90
2018-07-11T09:28:59.284Z,33.90
2018-07-11T09:31:40.549Z,34.10
2018-07-11T09:34:21.676Z,34.30
2018-07-11T09:37:02.885Z,34.60
2018-07-11T09:39:44.384Z,35.00
2018-07-11T09:42:26.048Z,35.20
2018-07-11T09:45:06.782Z,35.20
2018-07-11T09:47:47.436Z,35.30
2018-07-11T09:50:28.841Z,35.20
2018-07-11T09:53:09.460Z,35.10
2018-07-11T09:55:50.895Z,35.20
2018-07-11T10:01:18.668Z,35.00
2018-07-11T10:03:59.884Z,34.70
2018-07-11T10:06:41.393Z,34.30
2018-07-11T10:09:23.529Z,34.00
2018-07-11T10:12:04.591Z,33.70
2018-07-11T10:14:45.539Z,33.40
2018-07-11T10:17:26.325Z,33.20
2018-07-11T10:20:07.587Z,33.10
2018-07-11T10:22:48.438Z,33.10
2018-07-11T10:25:29.339Z,33.10
2018-07-11T10:28:10.302Z,33.20
2018-07-11T10:30:51.280Z,33.30
2018-07-11T10:33:31.819Z,33.40
2018-07-11T10:36:12.859Z,33.30
2018-07-11T10:38:54.103Z,33.20
2018-07-11T10:41:35.429Z,33.10
2018-07-11T10:44:16.953Z,33.00
2018-07-11T10:47:02.136Z,33.00
2018-07-11T10:49:44.279Z,32.80
2018-07-11T10:52:25.092Z,32.80
2018-07-11T10:57:47.871Z,32.90
2018-07-11T11:00:36.667Z,32.70
2018-07-11T11:03:11.391Z,32.80
2018-07-11T11:05:52.245Z,32.80
2018-07-11T11:08:33.554Z,33.00
2018-07-11T11:11:14.859Z,33.10
2018-07-11T11:13:56.312Z,33.20
2018-07-11T11:16:37.344Z,33.20
2018-07-11T11:19:18.614Z,33.20
2018-07-11T11:21:59.885Z,33.10
2018-07-11T11:24:41.332Z,33.10
2018-07-11T11:27:22.421Z,33.00
2018-07-11T11:30:04.123Z,32.90
2018-07-11T11:32:44.904Z,32.90
2018-07-11T11:35:25.856Z,33.00
2018-07-11T11:38:06.501Z,32.90
2018-07-11T11:40:47.356Z,32.80
2018-07-11T11:43:28.648Z,32.80
2018-07-11T11:46:09.212Z,32.90
2018-07-11T11:48:51.402Z,33.00
2018-07-11T11:51:32.427Z,33.00
2018-07-11T11:54:13.844Z,32.90
2018-07-11T11:56:55.270Z,33.00
2018-07-11T11:59:36.668Z,33.00
2018-07-11T12:04:59.846Z,33.00
2018-07-11T12:07:41.759Z,32.90
2018-07-11T12:10:22.860Z,32.80
2018-07-11T12:13:04.273Z,32.70
2018-07-11T12:15:45.651Z,32.60
2018-07-11T12:18:26.984Z,32.50
2018-07-11T12:21:08.088Z,32.50
2018-07-11T12:23:49.373Z,32.70
2018-07-11T12:26:30.308Z,32.70
2018-07-11T12:29:11.716Z,32.70
2018-07-11T12:31:52.697Z,32.70
2018-07-11T12:34:33.230Z,32.70
2018-07-11T12:37:14.001Z,32.80
2018-07-11T12:39:55.119Z,32.80
2018-07-11T12:42:36.130Z,32.80
2018-07-11T12:45:16.709Z,32.80
2018-07-11T12:48:02.700Z,33.00
2018-07-11T12:50:43.900Z,33.10
2018-07-11T12:53:24.972Z,33.10
2018-07-11T12:56:06.080Z,33.00
2018-07-11T12:58:46.669Z,32.70
2018-07-11T13:01:27.714Z,32.70
2018-07-11T13:04:09.095Z,32.50
2018-07-11T13:06:49.920Z,32.50
2018-07-11T13:09:31.067Z,32.40
2018-07-11T13:12:11.708Z,32.50
2018-07-11T13:14:52.986Z,32.40
2018-07-11T13:17:34.316Z,32.40
2018-07-11T13:20:15.761Z,32.40
2018-07-11T13:22:57.382Z,32.40
2018-07-11T13:25:38.574Z,32.50
2018-07-11T13:28:19.879Z,32.50
2018-07-11T13:31:01.810Z,32.70
2018-07-11T13:33:42.479Z,32.70
2018-07-11T13:36:25.694Z,32.80
2018-07-11T13:39:07.257Z,32.90
2018-07-11T13:44:30.649Z,33.00
2018-07-11T13:47:16.699Z,33.00
2018-07-11T13:49:59.743Z,32.90
2018-07-11T13:52:40.271Z,33.00
2018-07-11T13:55:21.525Z,33.00
2018-07-11T13:58:03.417Z,33.00
2018-07-11T14:03:25.600Z,33.20
2018-07-11T14:06:07.197Z,33.40
2018-07-11T14:08:48.563Z,33.60
2018-07-11T14:11:29.899Z,33.60
2018-07-11T14:14:11.213Z,33.60
2018-07-11T14:16:52.310Z,33.50
2018-07-11T14:19:34.002Z,33.60
2018-07-11T14:22:15.045Z,33.60
2018-07-11T14:24:56.460Z,33.60
2018-07-11T14:27:38.041Z,33.50
2018-07-11T14:30:19.614Z,33.30
2018-07-11T14:33:00.606Z,33.30
2018-07-11T14:35:41.319Z,33.20
2018-07-11T14:38:22.556Z,33.10
2018-07-11T14:41:04.341Z,33.00
2018-07-11T14:43:45.377Z,33.00
2018-07-11T14:46:28.180Z,32.90
2018-07-11T14:49:09.103Z,32.70
2018-07-11T14:51:50.401Z,32.40
2018-07-11T14:54:30.990Z,32.20
2018-07-11T14:57:12.200Z,32.00
2018-07-11T14:59:53.398Z,31.90
2018-07-11T15:02:34.680Z,31.70
2018-07-11T15:05:15.850Z,31.50
2018-07-11T15:07:57.190Z,31.30
2018-07-11T15:10:38.091Z,31.10
2018-07-11T15:13:19.101Z,30.90
2018-07-11T15:16:00.490Z,30.90
2018-07-11T15:18:41.435Z,30.80
2018-07-11T15:21:22.079Z,30.60
2018-07-11T15:24:03.569Z,30.50
2018-07-11T15:26:44.921Z,30.50
2018-07-11T15:29:26.282Z,30.40
2018-07-11T15:32:07.636Z,30.40
2018-07-11T15:34:48.133Z,30.30
2018-07-11T15:37:28.709Z,30.40
2018-07-11T15:42:51.425Z,30.50
2018-07-11T15:45:32.011Z,30.60
2018-07-11T15:48:13.373Z,30.70
2018-07-11T15:50:55.768Z,30.80
2018-07-11T15:53:37.042Z,30.90
2018-07-11T15:56:17.585Z,31.00
2018-07-11T15:58:59.109Z,31.00
2018-07-11T16:01:39.659Z,31.00
2018-07-11T16:07:02.633Z,31.00
2018-07-11T16:09:43.687Z,30.90
2018-07-11T16:12:25.017Z,30.80
2018-07-11T16:15:06.444Z,30.70
2018-07-11T16:17:47.879Z,30.50
2018-07-11T16:20:28.989Z,30.40
2018-07-11T16:23:10.172Z,30.40
2018-07-11T16:25:51.371Z,30.20
2018-07-11T16:28:32.763Z,30.10
2018-07-11T16:31:13.815Z,30.00
2018-07-11T16:33:54.360Z,29.80
2018-07-11T16:36:35.159Z,29.70
2018-07-11T16:39:17.072Z,29.60
2018-07-11T16:41:58.769Z,29.50
2018-07-11T16:44:39.545Z,29.40
2018-07-11T16:47:21.010Z,29.40
2018-07-11T16:50:04.574Z,29.30
2018-07-11T16:52:47.085Z,29.30
2018-07-11T16:55:29.989Z,29.30
2018-07-11T17:00:52.519Z,29.20
2018-07-11T17:03:33.684Z,29.20
2018-07-11T17:06:15.207Z,29.20
2018-07-11T17:08:56.496Z,29.20
2018-07-11T17:11:37.580Z,29.10
2018-07-11T17:14:19.005Z,29.00
2018-07-11T17:17:00.813Z,29.00
2018-07-11T17:19:41.585Z,29.00
2018-07-11T17:22:22.697Z,28.90
2018-07-11T17:25:03.944Z,28.80
2018-07-11T17:27:44.732Z,28.80
2018-07-11T17:30:26.045Z,28.80
2018-07-11T17:33:08.241Z,28.80
2018-07-11T17:35:49.950Z,28.80
2018-07-11T17:38:31.203Z,28.80
2018-07-11T17:41:12.398Z,28.80
2018-07-11T17:43:53.280Z,28.80
2018-07-11T17:46:34.507Z,28.70
2018-07-11T17:49:17.548Z,28.60
2018-07-11T17:51:58.524Z,28.60
2018-07-11T17:54:39.574Z,28.40
2018-07-11T17:57:20.120Z,28.30
2018-07-11T18:00:01.456Z,28.10
2018-07-11T18:02:43.364Z,27.90
2018-07-11T18:05:24.218Z,28.00
2018-07-11T18:08:05.524Z,28.00
2018-07-11T18:10:48.265Z,28.00
2018-07-11T18:13:30.590Z,28.10
2018-07-11T18:16:11.171Z,28.10
2018-07-11T18:18:52.435Z,28.00
2018-07-11T18:21:33.708Z,28.00
2018-07-11T18:24:15.051Z,28.10
2018-07-11T18:26:56.325Z,28.20
2018-07-11T18:29:37.609Z,28.10
2018-07-11T18:32:18.997Z,28.10
2018-07-11T18:35:00.137Z,28.20
2018-07-11T18:37:41.229Z,28.20
2018-07-11T18:40:22.081Z,28.10
2018-07-11T18:43:03.012Z,28.10
2018-07-11T18:45:43.865Z,27.90
2018-07-11T18:48:25.065Z,27.80
2018-07-11T18:51:05.984Z,27.80
2018-07-11T18:53:46.587Z,27.70
2018-07-11T18:56:27.416Z,27.70
2018-07-11T18:59:09.358Z,27.60
2018-07-11T19:01:51.792Z,27.60
2018-07-11T19:04:33.352Z,27.50
2018-07-11T19:07:15.872Z,27.40
2018-07-11T19:09:59.437Z,27.30
2018-07-11T19:12:40.118Z,27.20
2018-07-11T19:15:22.078Z,27.20
2018-07-11T19:18:06.967Z,27.10
2018-07-11T19:20:48.184Z,27.00
2018-07-11T19:23:31.463Z,26.90
2018-07-11T19:26:13.666Z,26.80
2018-07-11T19:28:55.522Z,26.60
2018-07-11T19:31:37.163Z,26.60
2018-07-11T19:34:17.733Z,26.50
2018-07-11T19:37:01.661Z,26.50
2018-07-11T19:39:44.436Z,26.50
2018-07-11T19:42:25.408Z,26.50
2018-07-11T19:45:06.660Z,26.60
2018-07-11T19:47:48.084Z,26.60
2018-07-11T19:50:28.768Z,26.50
2018-07-11T19:53:10.350Z,26.40
2018-07-11T19:55:50.997Z,26.50
2018-07-11T19:58:32.279Z,26.40
2018-07-11T20:01:13.211Z,26.40
2018-07-11T20:03:54.231Z,26.40
2018-07-11T20:06:35.316Z,26.40
2018-07-11T20:09:16.777Z,26.50
2018-07-11T20:11:57.520Z,26.50
2018-07-11T20:14:38.528Z,26.50
2018-07-11T20:17:19.433Z,26.40
2018-07-11T20:20:00.697Z,26.30
2018-07-11T20:22:41.221Z,26.30
2018-07-11T20:25:22.459Z,26.30
2018-07-11T20:28:03.891Z,26.40
2018-07-11T20:30:45.108Z,26.50
2018-07-11T20:33:26.041Z,26.40
2018-07-11T20:36:07.371Z,26.40
2018-07-11T20:38:48.604Z,26.30
2018-07-11T20:41:29.726Z,26.30
2018-07-11T20:44:10.244Z,26.30
2018-07-11T20:49:33.524Z,26.20
2018-07-11T20:52:14.176Z,26.40
2018-07-11T20:54:54.936Z,26.40
2018-07-11T20:57:35.918Z,26.40
2018-07-11T21:00:16.532Z,26.40
2018-07-11T21:02:57.678Z,26.40
2018-07-11T21:05:38.897Z,26.40
2018-07-11T21:08:19.917Z,26.40
2018-07-11T21:11:00.973Z,26.40
2018-07-11T21:13:42.960Z,26.30
2018-07-11T21:16:23.756Z,26.30
2018-07-11T21:19:07.776Z,26.20
2018-07-11T21:21:48.927Z,26.10
2018-07-11T21:24:30.623Z,26.00
2018-07-11T21:27:11.858Z,25.90
2018-07-11T21:29:53.352Z,25.90
2018-07-11T21:32:34.523Z,25.80
2018-07-11T21:35:15.855Z,25.70
2018-07-11T21:37:57.289Z,25.70
2018-07-11T21:40:38.641Z,25.70
2018-07-11T21:43:19.875Z,25.70
2018-07-11T21:46:01.197Z,25.70
2018-07-11T21:48:42.485Z,25.80
2018-07-11T21:51:23.789Z,25.90
2018-07-11T21:54:05.071Z,25.90
2018-07-11T21:56:46.420Z,26.00
2018-07-11T21:59:27.629Z,26.00
2018-07-11T22:04:50.236Z,25.90
2018-07-11T22:07:31.252Z,25.90
2018-07-11T22:10:12.605Z,25.80
2018-07-11T22:12:53.932Z,25.80
2018-07-11T22:15:35.497Z,25.80
2018-07-11T22:18:16.756Z,25.70
2018-07-11T22:20:57.552Z,25.70
2018-07-11T22:23:38.400Z,25.60
2018-07-11T22:26:19.163Z,25.60
2018-07-11T22:28:59.861Z,25.50
2018-07-11T22:31:41.308Z,25.40
2018-07-11T22:34:22.761Z,25.30
2018-07-11T22:37:03.557Z,25.30
2018-07-11T22:39:44.357Z,25.30
2018-07-11T22:42:25.321Z,25.40
2018-07-11T22:45:06.720Z,25.40
2018-07-11T22:47:47.845Z,25.50
2018-07-11T22:50:29.437Z,25.50
2018-07-11T22:53:10.519Z,25.50
2018-07-11T22:55:51.787Z,25.50
2018-07-11T22:58:33.041Z,25.40
2018-07-11T23:01:14.512Z,25.40
2018-07-11T23:03:55.972Z,25.30
2018-07-11T23:06:37.296Z,25.20
2018-07-11T23:09:17.879Z,25.00
2018-07-11T23:11:59.288Z,24.80
2018-07-11T23:14:40.388Z,24.60
2018-07-11T23:17:21.920Z,24.40
2018-07-11T23:20:02.666Z,24.30
2018-07-11T23:22:43.891Z,24.20
2018-07-11T23:25:24.696Z,24.30
2018-07-11T23:28:05.616Z,24.30
2018-07-11T23:30:46.591Z,24.30
2018-07-11T23:33:27.674Z,24.30
2018-07-11T23:36:08.384Z,24.40
2018-07-11T23:38:49.533Z,24.50
2018-07-11T23:41:30.608Z,24.50
2018-07-11T23:44:11.596Z,24.40
2018-07-11T23:46:52.598Z,24.40
2018-07-11T23:49:33.486Z,24.40
2018-07-11T23:52:14.601Z,24.40
2018-07-11T23:54:56.007Z,24.40
2018-07-11T23:57:37.195Z,24.50
